sensor_id;sensor_type;location;lat;lon;timestamp;pressure;altitude;pressure_sealevel;temperature;humidity
35291;BME280;21411;50.024;19.220;2022-09-09T00:04:43;98576.73;;;17.13;100.00
35291;BME280;21411;50.024;19.220;2022-09-09T00:12:13;98568.66;;;17.11;100.00
35291;BME280;21411;50.024;19.220;2022-09-09T00:17:12;98572.50;;;17.07;100.00
35291;BME280;21411;50.024;19.220;2022-09-09T00:25:02;98569.29;;;17.01;100.00
35291;BME280;21411;50.024;19.220;2022-09-09T00:32:44;98582.90;;;16.95;100.00
35291;BME280;21411;50.024;19.220;2022-09-09T00:37:36;98586.74;;;16.86;100.00
35291;BME280;21411;50.024;19.220;2022-09-09T00:40:07;98586.73;;;16.83;100.00
35291;BME280;21411;50.024;19.220;2022-09-09T00:42:43;98587.29;;;16.81;100.00
35291;BME280;21411;50.024;19.220;2022-09-09T00:45:24;98587.98;;;16.80;100.00
35291;BME280;21411;50.024;19.220;2022-09-09T00:47:57;98590.31;;;16.78;100.00
35291;BME280;21411;50.024;19.220;2022-09-09T00:55:45;98594.73;;;16.75;100.00
35291;BME280;21411;50.024;19.220;2022-09-09T00:58:13;98596.12;;;16.73;100.00
35291;BME280;21411;50.024;19.220;2022-09-09T01:03:36;98597.67;;;16.70;100.00
35291;BME280;21411;50.024;19.220;2022-09-09T01:06:16;98602.73;;;16.70;100.00
35291;BME280;21411;50.024;19.220;2022-09-09T01:08:53;98607.19;;;16.70;100.00
35291;BME280;21411;50.024;19.220;2022-09-09T01:11:26;98611.04;;;16.69;100.00
35291;BME280;21411;50.024;19.220;2022-09-09T01:14:00;98616.25;;;16.69;100.00
35291;BME280;21411;50.024;19.220;2022-09-09T01:16:28;98616.84;;;16.68;100.00
35291;BME280;21411;50.024;19.220;2022-09-09T01:18:55;98617.14;;;16.67;100.00
35291;BME280;21411;50.024;19.220;2022-09-09T01:28:45;98609.31;;;16.61;100.00
35291;BME280;21411;50.024;19.220;2022-09-09T01:31:14;98608.92;;;16.60;100.00
35291;BME280;21411;50.024;19.220;2022-09-09T01:33:40;98615.86;;;16.58;100.00
35291;BME280;21411;50.024;19.220;2022-09-09T01:36:08;98610.02;;;16.56;100.00
35291;BME280;21411;50.024;19.220;2022-09-09T01:38:36;98615.73;;;16.54;100.00
35291;BME280;21411;50.024;19.220;2022-09-09T01:41:04;98614.56;;;16.52;100.00
35291;BME280;21411;50.024;19.220;2022-09-09T01:43:30;98614.46;;;16.49;100.00
35291;BME280;21411;50.024;19.220;2022-09-09T01:45:56;98615.77;;;16.44;100.00
35291;BME280;21411;50.024;19.220;2022-09-09T01:48:24;98617.70;;;16.40;100.00
35291;BME280;21411;50.024;19.220;2022-09-09T01:50:51;98618.70;;;16.35;100.00
35291;BME280;21411;50.024;19.220;2022-09-09T01:53:17;98617.70;;;16.30;100.00
35291;BME280;21411;50.024;19.220;2022-09-09T01:55:47;98617.10;;;16.25;100.00
35291;BME280;21411;50.024;19.220;2022-09-09T01:58:37;98615.25;;;16.20;100.00
35291;BME280;21411;50.024;19.220;2022-09-09T02:01:13;98620.60;;;16.13;100.00
35291;BME280;21411;50.024;19.220;2022-09-09T02:03:41;98625.88;;;16.09;100.00
35291;BME280;21411;50.024;19.220;2022-09-09T02:06:14;98624.77;;;16.03;100.00
35291;BME280;21411;50.024;19.220;2022-09-09T02:08:47;98629.59;;;15.98;100.00
35291;BME280;21411;50.024;19.220;2022-09-09T02:11:16;98633.09;;;15.93;100.00
35291;BME280;21411;50.024;19.220;2022-09-09T02:13:46;98632.62;;;15.89;100.00
35291;BME280;21411;50.024;19.220;2022-09-09T02:16:26;98638.31;;;15.84;100.00
35291;BME280;21411;50.024;19.220;2022-09-09T02:18:58;98639.79;;;15.79;100.00
35291;BME280;21411;50.024;19.220;2022-09-09T02:21:27;98640.63;;;15.76;100.00
35291;BME280;21411;50.024;19.220;2022-09-09T02:23:54;98649.67;;;15.73;100.00
35291;BME280;21411;50.024;19.220;2022-09-09T02:26:23;98657.99;;;15.70;100.00
35291;BME280;21411;50.024;19.220;2022-09-09T02:28:50;98656.70;;;15.66;100.00
35291;BME280;21411;50.024;19.220;2022-09-09T02:31:17;98661.34;;;15.63;100.00
35291;BME280;21411;50.024;19.220;2022-09-09T02:33:47;98659.34;;;15.61;100.00
35291;BME280;21411;50.024;19.220;2022-09-09T02:36:16;98659.41;;;15.60;100.00
35291;BME280;21411;50.024;19.220;2022-09-09T02:38:44;98662.95;;;15.59;100.00
35291;BME280;21411;50.024;19.220;2022-09-09T02:41:11;98664.70;;;15.57;100.00
35291;BME280;21411;50.024;19.220;2022-09-09T02:43:38;98664.30;;;15.56;100.00
35291;BME280;21411;50.024;19.220;2022-09-09T02:48:39;98667.06;;;15.53;100.00
35291;BME280;21411;50.024;19.220;2022-09-09T02:51:19;98671.52;;;15.53;100.00
35291;BME280;21411;50.024;19.220;2022-09-09T02:56:35;98675.81;;;15.57;100.00
35291;BME280;21411;50.024;19.220;2022-09-09T02:59:05;98681.06;;;15.61;100.00
35291;BME280;21411;50.024;19.220;2022-09-09T03:01:30;98682.88;;;15.64;100.00
35291;BME280;21411;50.024;19.220;2022-09-09T03:03:57;98685.54;;;15.66;100.00
35291;BME280;21411;50.024;19.220;2022-09-09T03:06:23;98687.45;;;15.69;100.00
35291;BME280;21411;50.024;19.220;2022-09-09T03:08:49;98686.10;;;15.72;100.00
35291;BME280;21411;50.024;19.220;2022-09-09T03:11:16;98690.45;;;15.75;100.00
35291;BME280;21411;50.024;19.220;2022-09-09T03:13:42;98688.64;;;15.77;100.00
35291;BME280;21411;50.024;19.220;2022-09-09T03:16:09;98687.02;;;15.79;100.00
35291;BME280;21411;50.024;19.220;2022-09-09T03:18:34;98684.86;;;15.82;100.00
35291;BME280;21411;50.024;19.220;2022-09-09T03:21:01;98686.35;;;15.83;100.00
35291;BME280;21411;50.024;19.220;2022-09-09T03:23:26;98684.84;;;15.84;100.00
35291;BME280;21411;50.024;19.220;2022-09-09T03:25:53;98683.14;;;15.85;100.00
35291;BME280;21411;50.024;19.220;2022-09-09T03:28:22;98683.87;;;15.85;100.00
35291;BME280;21411;50.024;19.220;2022-09-09T03:30:49;98681.84;;;15.85;100.00
35291;BME280;21411;50.024;19.220;2022-09-09T03:33:14;98683.99;;;15.85;100.00
35291;BME280;21411;50.024;19.220;2022-09-09T03:35:46;98682.27;;;15.85;100.00
35291;BME280;21411;50.024;19.220;2022-09-09T03:38:16;98685.38;;;15.84;100.00
35291;BME280;21411;50.024;19.220;2022-09-09T03:40:52;98689.67;;;15.84;100.00
35291;BME280;21411;50.024;19.220;2022-09-09T03:43:21;98695.13;;;15.83;100.00
35291;BME280;21411;50.024;19.220;2022-09-09T03:45:47;98694.94;;;15.81;100.00
35291;BME280;21411;50.024;19.220;2022-09-09T03:48:14;98695.52;;;15.79;100.00
35291;BME280;21411;50.024;19.220;2022-09-09T03:50:46;98701.70;;;15.76;100.00
35291;BME280;21411;50.024;19.220;2022-09-09T03:53:12;98710.94;;;15.73;100.00
35291;BME280;21411;50.024;19.220;2022-09-09T03:55:38;98706.45;;;15.69;100.00
35291;BME280;21411;50.024;19.220;2022-09-09T03:58:04;98712.15;;;15.65;100.00
35291;BME280;21411;50.024;19.220;2022-09-09T04:00:30;98715.54;;;15.61;100.00
35291;BME280;21411;50.024;19.220;2022-09-09T04:02:56;98718.13;;;15.58;100.00
35291;BME280;21411;50.024;19.220;2022-09-09T04:05:23;98717.04;;;15.55;100.00
35291;BME280;21411;50.024;19.220;2022-09-09T04:07:49;98714.18;;;15.51;100.00
35291;BME280;21411;50.024;19.220;2022-09-09T04:10:16;98718.98;;;15.48;100.00
35291;BME280;21411;50.024;19.220;2022-09-09T04:12:43;98721.07;;;15.42;100.00
35291;BME280;21411;50.024;19.220;2022-09-09T04:15:09;98719.27;;;15.38;100.00
35291;BME280;21411;50.024;19.220;2022-09-09T04:17:36;98717.79;;;15.35;100.00
35291;BME280;21411;50.024;19.220;2022-09-09T04:20:05;98720.73;;;15.32;100.00
35291;BME280;21411;50.024;19.220;2022-09-09T04:22:32;98713.41;;;15.30;100.00
35291;BME280;21411;50.024;19.220;2022-09-09T04:24:58;98723.20;;;15.29;100.00
35291;BME280;21411;50.024;19.220;2022-09-09T04:27:24;98723.36;;;15.27;100.00
35291;BME280;21411;50.024;19.220;2022-09-09T04:29:50;98720.55;;;15.26;100.00
35291;BME280;21411;50.024;19.220;2022-09-09T04:32:16;98721.39;;;15.27;100.00
35291;BME280;21411;50.024;19.220;2022-09-09T04:34:42;98723.50;;;15.27;100.00
35291;BME280;21411;50.024;19.220;2022-09-09T04:37:08;98723.41;;;15.28;100.00
35291;BME280;21411;50.024;19.220;2022-09-09T04:39:34;98725.27;;;15.31;100.00
35291;BME280;21411;50.024;19.220;2022-09-09T04:42:00;98722.73;;;15.34;100.00
35291;BME280;21411;50.024;19.220;2022-09-09T04:44:26;98723.11;;;15.37;100.00
35291;BME280;21411;50.024;19.220;2022-09-09T04:46:52;98723.64;;;15.41;100.00
35291;BME280;21411;50.024;19.220;2022-09-09T04:49:18;98722.36;;;15.50;100.00
35291;BME280;21411;50.024;19.220;2022-09-09T04:51:44;98720.30;;;15.97;100.00
35291;BME280;21411;50.024;19.220;2022-09-09T04:54:10;98720.95;;;16.45;100.00
35291;BME280;21411;50.024;19.220;2022-09-09T04:56:37;98716.98;;;16.62;100.00
35291;BME280;21411;50.024;19.220;2022-09-09T04:59:03;98715.46;;;16.43;100.00
35291;BME280;21411;50.024;19.220;2022-09-09T05:01:29;98721.21;;;16.35;100.00
35291;BME280;21411;50.024;19.220;2022-09-09T05:03:56;98721.22;;;16.34;100.00
35291;BME280;21411;50.024;19.220;2022-09-09T05:06:22;98721.53;;;16.79;100.00
35291;BME280;21411;50.024;19.220;2022-09-09T05:08:48;98716.81;;;17.32;100.00
35291;BME280;21411;50.024;19.220;2022-09-09T05:13:46;98721.90;;;18.21;100.00
35291;BME280;21411;50.024;19.220;2022-09-09T05:16:13;98720.85;;;18.54;100.00
35291;BME280;21411;50.024;19.220;2022-09-09T05:18:40;98726.29;;;18.81;100.00
35291;BME280;21411;50.024;19.220;2022-09-09T05:21:06;98729.59;;;19.11;100.00
35291;BME280;21411;50.024;19.220;2022-09-09T05:23:33;98734.54;;;19.44;100.00
35291;BME280;21411;50.024;19.220;2022-09-09T05:26:02;98740.93;;;19.75;100.00
35291;BME280;21411;50.024;19.220;2022-09-09T05:28:28;98740.92;;;20.05;100.00
35291;BME280;21411;50.024;19.220;2022-09-09T05:30:58;98736.70;;;20.31;100.00
35291;BME280;21411;50.024;19.220;2022-09-09T05:33:27;98740.64;;;20.53;100.00
35291;BME280;21411;50.024;19.220;2022-09-09T05:35:58;98738.06;;;20.76;100.00
35291;BME280;21411;50.024;19.220;2022-09-09T05:38:25;98740.58;;;20.93;100.00
35291;BME280;21411;50.024;19.220;2022-09-09T05:40:51;98744.16;;;21.19;100.00
35291;BME280;21411;50.024;19.220;2022-09-09T05:43:18;98750.13;;;21.39;100.00
35291;BME280;21411;50.024;19.220;2022-09-09T05:45:46;98750.17;;;21.69;100.00
35291;BME280;21411;50.024;19.220;2022-09-09T05:48:15;98747.70;;;21.91;100.00
35291;BME280;21411;50.024;19.220;2022-09-09T05:50:42;98742.85;;;22.03;100.00
35291;BME280;21411;50.024;19.220;2022-09-09T05:53:08;98742.02;;;22.02;100.00
35291;BME280;21411;50.024;19.220;2022-09-09T05:55:37;98747.86;;;21.84;100.00
35291;BME280;21411;50.024;19.220;2022-09-09T05:58:03;98749.45;;;21.59;100.00
35291;BME280;21411;50.024;19.220;2022-09-09T06:00:29;98750.52;;;21.41;100.00
35291;BME280;21411;50.024;19.220;2022-09-09T06:02:58;98749.08;;;21.33;100.00
35291;BME280;21411;50.024;19.220;2022-09-09T06:05:24;98752.60;;;21.16;100.00
35291;BME280;21411;50.024;19.220;2022-09-09T06:07:53;98748.75;;;21.15;100.00
35291;BME280;21411;50.024;19.220;2022-09-09T06:10:19;98750.50;;;21.34;100.00
35291;BME280;21411;50.024;19.220;2022-09-09T06:12:45;98754.54;;;21.46;100.00
35291;BME280;21411;50.024;19.220;2022-09-09T06:15:12;98753.84;;;21.56;100.00
35291;BME280;21411;50.024;19.220;2022-09-09T06:17:38;98752.95;;;21.69;100.00
35291;BME280;21411;50.024;19.220;2022-09-09T06:20:04;98752.80;;;21.86;100.00
35291;BME280;21411;50.024;19.220;2022-09-09T06:22:35;98753.84;;;21.94;100.00
35291;BME280;21411;50.024;19.220;2022-09-09T06:25:01;98749.29;;;22.07;100.00
35291;BME280;21411;50.024;19.220;2022-09-09T06:27:28;98747.52;;;22.09;100.00
35291;BME280;21411;50.024;19.220;2022-09-09T06:29:54;98748.38;;;21.93;100.00
35291;BME280;21411;50.024;19.220;2022-09-09T06:32:20;98748.98;;;21.70;100.00
35291;BME280;21411;50.024;19.220;2022-09-09T06:34:46;98747.50;;;21.57;100.00
35291;BME280;21411;50.024;19.220;2022-09-09T06:37:14;98750.05;;;21.50;100.00
35291;BME280;21411;50.024;19.220;2022-09-09T06:39:41;98749.83;;;21.42;100.00
35291;BME280;21411;50.024;19.220;2022-09-09T06:42:07;98750.02;;;21.34;100.00
35291;BME280;21411;50.024;19.220;2022-09-09T06:44:34;98748.17;;;21.23;100.00
35291;BME280;21411;50.024;19.220;2022-09-09T06:46:59;98745.38;;;21.13;100.00
35291;BME280;21411;50.024;19.220;2022-09-09T06:49:26;98748.98;;;21.09;100.00
35291;BME280;21411;50.024;19.220;2022-09-09T06:51:51;98746.83;;;21.11;100.00
35291;BME280;21411;50.024;19.220;2022-09-09T06:54:18;98742.59;;;21.09;100.00
35291;BME280;21411;50.024;19.220;2022-09-09T06:56:45;98750.74;;;21.05;100.00
35291;BME280;21411;50.024;19.220;2022-09-09T06:59:11;98754.03;;;21.07;100.00
35291;BME280;21411;50.024;19.220;2022-09-09T07:01:39;98747.39;;;21.11;100.00
35291;BME280;21411;50.024;19.220;2022-09-09T07:04:06;98750.36;;;21.11;100.00
35291;BME280;21411;50.024;19.220;2022-09-09T07:06:35;98747.73;;;21.13;100.00
35291;BME280;21411;50.024;19.220;2022-09-09T07:09:09;98746.42;;;21.10;100.00
35291;BME280;21411;50.024;19.220;2022-09-09T07:11:40;98744.30;;;21.12;100.00
35291;BME280;21411;50.024;19.220;2022-09-09T07:14:09;98740.45;;;21.15;100.00
35291;BME280;21411;50.024;19.220;2022-09-09T07:16:38;98743.98;;;21.20;100.00
35291;BME280;21411;50.024;19.220;2022-09-09T07:19:05;98746.21;;;21.28;100.00
35291;BME280;21411;50.024;19.220;2022-09-09T07:21:32;98744.40;;;21.31;100.00
35291;BME280;21411;50.024;19.220;2022-09-09T07:23:59;98739.89;;;21.31;100.00
35291;BME280;21411;50.024;19.220;2022-09-09T07:26:26;98737.36;;;21.36;100.00
35291;BME280;21411;50.024;19.220;2022-09-09T07:28:52;98739.52;;;21.31;100.00
35291;BME280;21411;50.024;19.220;2022-09-09T07:31:20;98739.51;;;21.28;100.00
35291;BME280;21411;50.024;19.220;2022-09-09T07:33:47;98737.65;;;21.27;100.00
35291;BME280;21411;50.024;19.220;2022-09-09T07:36:14;98736.69;;;21.35;100.00
35291;BME280;21411;50.024;19.220;2022-09-09T07:38:45;98738.21;;;21.44;100.00
35291;BME280;21411;50.024;19.220;2022-09-09T07:41:14;98741.82;;;21.55;100.00
35291;BME280;21411;50.024;19.220;2022-09-09T07:43:44;98743.63;;;21.63;100.00
35291;BME280;21411;50.024;19.220;2022-09-09T07:46:11;98748.13;;;21.71;100.00
35291;BME280;21411;50.024;19.220;2022-09-09T07:48:44;98750.96;;;21.77;100.00
35291;BME280;21411;50.024;19.220;2022-09-09T07:51:14;98755.77;;;21.84;100.00
35291;BME280;21411;50.024;19.220;2022-09-09T07:53:45;98754.61;;;21.94;100.00
35291;BME280;21411;50.024;19.220;2022-09-09T07:56:13;98755.91;;;21.97;100.00
35291;BME280;21411;50.024;19.220;2022-09-09T07:58:39;98758.86;;;21.96;100.00
35291;BME280;21411;50.024;19.220;2022-09-09T08:01:16;98755.63;;;21.98;100.00
35291;BME280;21411;50.024;19.220;2022-09-09T08:03:45;98757.60;;;21.73;100.00
35291;BME280;21411;50.024;19.220;2022-09-09T08:06:12;98756.08;;;21.50;100.00
35291;BME280;21411;50.024;19.220;2022-09-09T08:08:39;98757.40;;;21.45;100.00
35291;BME280;21411;50.024;19.220;2022-09-09T08:11:08;98765.77;;;21.35;100.00
35291;BME280;21411;50.024;19.220;2022-09-09T08:13:35;98764.91;;;21.21;100.00
35291;BME280;21411;50.024;19.220;2022-09-09T08:16:06;98766.48;;;21.31;100.00
35291;BME280;21411;50.024;19.220;2022-09-09T08:18:32;98769.63;;;21.41;100.00
35291;BME280;21411;50.024;19.220;2022-09-09T08:21:04;98770.18;;;21.57;100.00
35291;BME280;21411;50.024;19.220;2022-09-09T08:23:30;98769.64;;;21.65;100.00
35291;BME280;21411;50.024;19.220;2022-09-09T08:26:05;98772.66;;;21.71;100.00
35291;BME280;21411;50.024;19.220;2022-09-09T08:28:31;98774.80;;;21.82;100.00
35291;BME280;21411;50.024;19.220;2022-09-09T08:31:04;98780.83;;;22.06;100.00
35291;BME280;21411;50.024;19.220;2022-09-09T08:33:30;98778.31;;;22.21;100.00
35291;BME280;21411;50.024;19.220;2022-09-09T08:35:56;98771.81;;;22.44;100.00
35291;BME280;21411;50.024;19.220;2022-09-09T08:38:22;98758.85;;;22.68;100.00
35291;BME280;21411;50.024;19.220;2022-09-09T08:40:48;98762.29;;;22.91;100.00
35291;BME280;21411;50.024;19.220;2022-09-09T08:43:16;98764.94;;;23.01;100.00
35291;BME280;21411;50.024;19.220;2022-09-09T08:45:53;98765.20;;;23.09;100.00
35291;BME280;21411;50.024;19.220;2022-09-09T08:48:29;98761.02;;;23.29;100.00
35291;BME280;21411;50.024;19.220;2022-09-09T08:51:00;98760.31;;;23.50;100.00
35291;BME280;21411;50.024;19.220;2022-09-09T08:53:28;98761.30;;;23.70;100.00
35291;BME280;21411;50.024;19.220;2022-09-09T09:03:29;98763.30;;;23.92;100.00
35291;BME280;21411;50.024;19.220;2022-09-09T09:06:06;98762.28;;;23.98;100.00
35291;BME280;21411;50.024;19.220;2022-09-09T09:08:39;98762.77;;;24.05;100.00
35291;BME280;21411;50.024;19.220;2022-09-09T09:11:09;98762.84;;;24.05;100.00
35291;BME280;21411;50.024;19.220;2022-09-09T09:13:38;98758.63;;;24.06;100.00
35291;BME280;21411;50.024;19.220;2022-09-09T09:16:10;98757.13;;;24.07;100.00
35291;BME280;21411;50.024;19.220;2022-09-09T09:18:39;98752.55;;;24.01;100.00
35291;BME280;21411;50.024;19.220;2022-09-09T09:21:11;98755.30;;;24.06;100.00
35291;BME280;21411;50.024;19.220;2022-09-09T09:26:22;98755.40;;;24.21;100.00
35291;BME280;21411;50.024;19.220;2022-09-09T09:28:49;98752.67;;;24.25;100.00
35291;BME280;21411;50.024;19.220;2022-09-09T09:31:17;98751.60;;;24.37;100.00
35291;BME280;21411;50.024;19.220;2022-09-09T09:36:12;98748.10;;;24.51;100.00
35291;BME280;21411;50.024;19.220;2022-09-09T09:38:57;98744.03;;;24.63;100.00
35291;BME280;21411;50.024;19.220;2022-09-09T09:41:31;98736.18;;;24.82;100.00
35291;BME280;21411;50.024;19.220;2022-09-09T09:43:57;98739.34;;;24.91;100.00
35291;BME280;21411;50.024;19.220;2022-09-09T09:46:24;98743.76;;;24.86;100.00
35291;BME280;21411;50.024;19.220;2022-09-09T09:48:56;98746.85;;;24.85;100.00
35291;BME280;21411;50.024;19.220;2022-09-09T09:51:22;98749.08;;;24.85;100.00
35291;BME280;21411;50.024;19.220;2022-09-09T09:53:49;98748.08;;;24.73;100.00
35291;BME280;21411;50.024;19.220;2022-09-09T09:56:15;98744.06;;;24.70;100.00
35291;BME280;21411;50.024;19.220;2022-09-09T10:01:19;98739.65;;;24.66;100.00
35291;BME280;21411;50.024;19.220;2022-09-09T10:03:51;98740.73;;;24.79;100.00
35291;BME280;21411;50.024;19.220;2022-09-09T10:06:28;98750.21;;;24.94;100.00
35291;BME280;21411;50.024;19.220;2022-09-09T10:08:54;98750.84;;;25.14;100.00
35291;BME280;21411;50.024;19.220;2022-09-09T10:14:00;98748.84;;;25.59;100.00
35291;BME280;21411;50.024;19.220;2022-09-09T10:19:15;98750.72;;;25.38;100.00
35291;BME280;21411;50.024;19.220;2022-09-09T10:21:53;98752.48;;;25.22;100.00
35291;BME280;21411;50.024;19.220;2022-09-09T10:26:58;98755.77;;;25.42;100.00
35291;BME280;21411;50.024;19.220;2022-09-09T10:32:14;98761.75;;;25.39;100.00
35291;BME280;21411;50.024;19.220;2022-09-09T10:34:56;98763.27;;;25.37;100.00
35291;BME280;21411;50.024;19.220;2022-09-09T10:40:04;98762.71;;;25.64;100.00
35291;BME280;21411;50.024;19.220;2022-09-09T10:42:41;98767.23;;;25.81;100.00
35291;BME280;21411;50.024;19.220;2022-09-09T10:45:21;98757.83;;;25.98;100.00
35291;BME280;21411;50.024;19.220;2022-09-09T10:55:43;98754.64;;;26.05;100.00
35291;BME280;21411;50.024;19.220;2022-09-09T10:58:17;98752.00;;;26.04;100.00
35291;BME280;21411;50.024;19.220;2022-09-09T11:00:46;98752.04;;;26.09;100.00
35291;BME280;21411;50.024;19.220;2022-09-09T11:03:23;98749.40;;;26.19;100.00
35291;BME280;21411;50.024;19.220;2022-09-09T11:08:18;98753.36;;;25.81;100.00
35291;BME280;21411;50.024;19.220;2022-09-09T11:11:10;98755.27;;;25.49;100.00
35291;BME280;21411;50.024;19.220;2022-09-09T11:18:46;98748.48;;;25.65;100.00
35291;BME280;21411;50.024;19.220;2022-09-09T11:21:23;98749.25;;;25.81;100.00
35291;BME280;21411;50.024;19.220;2022-09-09T11:23:56;98750.00;;;25.92;100.00
35291;BME280;21411;50.024;19.220;2022-09-09T11:32:27;98754.83;;;26.15;100.00
35291;BME280;21411;50.024;19.220;2022-09-09T11:42:36;98763.44;;;26.29;100.00
35291;BME280;21411;50.024;19.220;2022-09-09T11:48:00;98757.30;;;26.21;100.00
35291;BME280;21411;50.024;19.220;2022-09-09T11:50:29;98757.94;;;26.15;100.00
35291;BME280;21411;50.024;19.220;2022-09-09T11:55:41;98760.20;;;26.14;100.00
35291;BME280;21411;50.024;19.220;2022-09-09T12:03:06;98761.57;;;25.97;100.00
35291;BME280;21411;50.024;19.220;2022-09-09T12:05:53;98764.30;;;25.85;100.00
35291;BME280;21411;50.024;19.220;2022-09-09T12:08:21;98760.61;;;25.77;100.00
35291;BME280;21411;50.024;19.220;2022-09-09T12:10:55;98758.45;;;25.81;100.00
35291;BME280;21411;50.024;19.220;2022-09-09T12:13:23;98757.22;;;25.88;100.00
35291;BME280;21411;50.024;19.220;2022-09-09T12:15:50;98759.85;;;25.98;100.00
35291;BME280;21411;50.024;19.220;2022-09-09T12:18:39;98755.98;;;26.09;100.00
35291;BME280;21411;50.024;19.220;2022-09-09T12:21:07;98757.14;;;26.18;100.00
35291;BME280;21411;50.024;19.220;2022-09-09T12:23:59;98754.86;;;26.19;100.00
35291;BME280;21411;50.024;19.220;2022-09-09T12:26:34;98757.67;;;26.08;100.00
35291;BME280;21411;50.024;19.220;2022-09-09T12:29:24;98762.52;;;25.93;100.00
35291;BME280;21411;50.024;19.220;2022-09-09T12:36:58;98764.65;;;25.90;100.00
35291;BME280;21411;50.024;19.220;2022-09-09T12:39:33;98768.88;;;26.01;100.00
35291;BME280;21411;50.024;19.220;2022-09-09T12:42:01;98768.93;;;26.08;100.00
35291;BME280;21411;50.024;19.220;2022-09-09T12:44:30;98762.09;;;26.11;100.00
35291;BME280;21411;50.024;19.220;2022-09-09T12:46:57;98755.91;;;26.15;100.00
35291;BME280;21411;50.024;19.220;2022-09-09T12:49:32;98751.08;;;26.24;100.00
35291;BME280;21411;50.024;19.220;2022-09-09T12:52:01;98752.98;;;26.39;100.00
35291;BME280;21411;50.024;19.220;2022-09-09T12:54:28;98759.42;;;26.52;100.00
35291;BME280;21411;50.024;19.220;2022-09-09T12:56:53;98755.13;;;26.51;100.00
35291;BME280;21411;50.024;19.220;2022-09-09T12:59:24;98752.98;;;26.43;100.00
35291;BME280;21411;50.024;19.220;2022-09-09T13:01:56;98749.83;;;26.34;100.00
35291;BME280;21411;50.024;19.220;2022-09-09T13:04:22;98744.66;;;26.19;100.00
35291;BME280;21411;50.024;19.220;2022-09-09T13:06:48;98749.62;;;25.89;100.00
35291;BME280;21411;50.024;19.220;2022-09-09T13:09:14;98747.50;;;25.75;100.00
35291;BME280;21411;50.024;19.220;2022-09-09T13:11:41;98743.36;;;25.69;100.00
35291;BME280;21411;50.024;19.220;2022-09-09T13:17:03;98742.71;;;25.76;100.00
35291;BME280;21411;50.024;19.220;2022-09-09T13:19:32;98749.62;;;25.79;100.00
35291;BME280;21411;50.024;19.220;2022-09-09T13:22:10;98746.27;;;25.91;100.00
35291;BME280;21411;50.024;19.220;2022-09-09T13:24:39;98738.86;;;25.91;100.00
35291;BME280;21411;50.024;19.220;2022-09-09T13:27:05;98732.30;;;25.85;100.00
35291;BME280;21411;50.024;19.220;2022-09-09T13:29:52;98731.09;;;25.76;100.00
35291;BME280;21411;50.024;19.220;2022-09-09T13:32:20;98727.98;;;25.71;100.00
35291;BME280;21411;50.024;19.220;2022-09-09T13:34:53;98731.98;;;25.79;100.00
35291;BME280;21411;50.024;19.220;2022-09-09T13:37:22;98736.14;;;25.82;100.00
35291;BME280;21411;50.024;19.220;2022-09-09T13:39:52;98732.61;;;25.90;100.00
35291;BME280;21411;50.024;19.220;2022-09-09T13:42:38;98730.91;;;26.03;100.00
35291;BME280;21411;50.024;19.220;2022-09-09T13:45:05;98727.59;;;26.17;100.00
35291;BME280;21411;50.024;19.220;2022-09-09T13:47:35;98723.27;;;26.17;100.00
35291;BME280;21411;50.024;19.220;2022-09-09T13:52:48;98717.58;;;26.09;100.00
35291;BME280;21411;50.024;19.220;2022-09-09T13:55:17;98713.59;;;25.83;100.00
35291;BME280;21411;50.024;19.220;2022-09-09T13:57:54;98713.02;;;25.55;100.00
35291;BME280;21411;50.024;19.220;2022-09-09T14:00:21;98713.45;;;25.38;100.00
35291;BME280;21411;50.024;19.220;2022-09-09T14:02:48;98710.30;;;25.32;100.00
35291;BME280;21411;50.024;19.220;2022-09-09T14:05:14;98707.98;;;25.23;100.00
35291;BME280;21411;50.024;19.220;2022-09-09T14:08:07;98704.77;;;25.13;100.00
35291;BME280;21411;50.024;19.220;2022-09-09T14:10:33;98700.95;;;25.06;100.00
35291;BME280;21411;50.024;19.220;2022-09-09T14:13:03;98700.02;;;24.96;100.00
35291;BME280;21411;50.024;19.220;2022-09-09T14:15:29;98701.17;;;24.92;100.00
35291;BME280;21411;50.024;19.220;2022-09-09T14:17:55;98696.88;;;24.90;100.00
35291;BME280;21411;50.024;19.220;2022-09-09T14:20:25;98692.73;;;24.90;100.00
35291;BME280;21411;50.024;19.220;2022-09-09T14:22:51;98685.95;;;24.93;100.00
35291;BME280;21411;50.024;19.220;2022-09-09T14:25:19;98681.18;;;24.96;100.00
35291;BME280;21411;50.024;19.220;2022-09-09T14:27:46;98682.11;;;25.08;100.00
35291;BME280;21411;50.024;19.220;2022-09-09T14:30:12;98680.70;;;25.18;100.00
35291;BME280;21411;50.024;19.220;2022-09-09T14:32:39;98681.79;;;25.25;100.00
35291;BME280;21411;50.024;19.220;2022-09-09T14:35:06;98682.73;;;25.26;100.00
35291;BME280;21411;50.024;19.220;2022-09-09T14:37:32;98681.48;;;25.29;100.00
35291;BME280;21411;50.024;19.220;2022-09-09T14:39:58;98683.63;;;25.31;100.00
35291;BME280;21411;50.024;19.220;2022-09-09T14:42:24;98682.58;;;25.34;100.00
35291;BME280;21411;50.024;19.220;2022-09-09T14:44:52;98686.20;;;25.26;100.00
35291;BME280;21411;50.024;19.220;2022-09-09T14:47:18;98687.08;;;25.08;100.00
35291;BME280;21411;50.024;19.220;2022-09-09T14:49:44;98690.25;;;24.95;100.00
35291;BME280;21411;50.024;19.220;2022-09-09T14:52:11;98689.73;;;24.92;100.00
35291;BME280;21411;50.024;19.220;2022-09-09T14:54:37;98683.81;;;24.94;100.00
35291;BME280;21411;50.024;19.220;2022-09-09T14:57:04;98684.16;;;24.93;100.00